createdAt,value
2022-09-18T00:02:27.580Z,19.67
2022-09-18T00:04:57.782Z,19.62
2022-09-18T00:07:28.133Z,19.66
2022-09-18T00:09:58.724Z,19.66
2022-09-18T00:12:30.869Z,19.69
2022-09-18T00:17:59.586Z,19.57
2022-09-18T00:20:29.952Z,19.61
2022-09-18T00:23:00.245Z,19.57
2022-09-18T00:25:31.468Z,19.57
2022-09-18T00:28:02.098Z,19.39
2022-09-18T00:30:33.955Z,19.42
2022-09-18T00:33:04.370Z,19.26
2022-09-18T00:35:34.558Z,19.47
2022-09-18T00:38:05.189Z,19.35
2022-09-18T00:40:35.776Z,19.46
2022-09-18T00:43:22.164Z,19.52
2022-09-18T00:46:28.771Z,19.52
2022-09-18T00:49:10.974Z,19.54
2022-09-18T00:51:43.382Z,19.49
2022-09-18T00:54:25.573Z,19.48
2022-09-18T00:56:59.086Z,19.48
2022-09-18T00:59:32.096Z,19.59
2022-09-18T01:02:04.236Z,19.61
2022-09-18T01:04:34.963Z,19.62
2022-09-18T01:07:19.899Z,19.54
2022-09-18T01:09:57.234Z,19.54
2022-09-18T01:12:42.068Z,19.56
2022-09-18T01:15:24.334Z,19.56
2022-09-18T01:18:00.207Z,19.53
2022-09-18T01:20:33.371Z,19.53
2022-09-18T01:23:15.647Z,19.63
2022-09-18T01:26:03.453Z,19.63
2022-09-18T01:28:45.883Z,19.60
2022-09-18T01:31:19.198Z,19.60
2022-09-18T01:33:55.448Z,19.63
2022-09-18T01:36:28.723Z,19.54
2022-09-18T01:39:02.168Z,19.59
2022-09-18T01:41:35.096Z,19.59
2022-09-18T01:44:09.238Z,19.55
2022-09-18T01:46:42.700Z,19.58
2022-09-18T01:49:16.061Z,19.37
2022-09-18T01:51:50.664Z,19.37
2022-09-18T01:54:24.803Z,19.56
2022-09-18T01:57:06.729Z,19.56
2022-09-18T01:59:51.719Z,19.54
2022-09-18T02:02:37.357Z,19.45
2022-09-18T02:05:10.641Z,19.45
2022-09-18T02:08:00.515Z,19.24
2022-09-18T02:10:33.746Z,19.30
2022-09-18T02:13:06.871Z,19.27
2022-09-18T02:15:40.359Z,19.43
2022-09-18T02:18:14.158Z,19.43
2022-09-18T02:20:46.944Z,19.44
2022-09-18T02:23:18.167Z,19.35
2022-09-18T02:25:54.102Z,19.20
2022-09-18T02:28:27.600Z,19.16
2022-09-18T02:30:58.395Z,19.16
2022-09-18T02:33:34.499Z,19.14
2022-09-18T02:36:29.527Z,19.33
2022-09-18T02:39:31.629Z,19.33
2022-09-18T02:42:25.593Z,19.33
2022-09-18T02:45:15.318Z,19.34
2022-09-18T02:47:51.251Z,19.38
2022-09-18T02:50:27.302Z,19.38
2022-09-18T02:53:16.909Z,19.28
2022-09-18T02:55:52.477Z,19.28
2022-09-18T02:58:28.481Z,19.21
2022-09-18T03:01:01.570Z,19.21
2022-09-18T03:03:33.513Z,19.40
2022-09-18T03:06:03.947Z,19.50
2022-09-18T03:08:35.102Z,19.50
2022-09-18T03:11:05.842Z,19.52
2022-09-18T03:13:37.892Z,19.47
2022-09-18T03:16:08.351Z,19.40
2022-09-18T03:18:39.233Z,19.33
2022-09-18T03:21:09.574Z,19.51
2022-09-18T03:23:43.548Z,19.51
2022-09-18T03:26:11.925Z,19.39
2022-09-18T03:28:42.346Z,19.56
2022-09-18T03:31:16.707Z,19.53
2022-09-18T03:33:48.230Z,19.53
2022-09-18T03:36:18.522Z,19.48
2022-09-18T03:38:48.699Z,19.49
2022-09-18T03:41:18.963Z,19.49
2022-09-18T03:43:49.490Z,19.49
2022-09-18T03:46:19.954Z,19.48
2022-09-18T03:48:51.830Z,19.50
2022-09-18T03:51:22.961Z,19.50
2022-09-18T03:53:53.327Z,19.49
2022-09-18T03:56:23.647Z,19.59
2022-09-18T03:58:54.188Z,19.55
2022-09-18T04:01:24.643Z,19.64
2022-09-18T04:03:55.328Z,19.64
2022-09-18T04:06:25.792Z,19.69
2022-09-18T04:08:56.342Z,19.72
2022-09-18T04:11:47.374Z,19.76
2022-09-18T04:14:17.754Z,19.78
2022-09-18T04:16:50.162Z,19.88
2022-09-18T04:19:20.779Z,19.95
2022-09-18T04:21:51.446Z,19.95
2022-09-18T04:24:22.242Z,20.04
2022-09-18T04:26:52.715Z,20.14
2022-09-18T04:29:23.102Z,20.17
2022-09-18T04:31:53.660Z,20.17
2022-09-18T04:34:23.899Z,20.26
2022-09-18T04:36:54.411Z,20.26
2022-09-18T04:39:24.753Z,20.20
2022-09-18T04:41:55.431Z,20.20
2022-09-18T04:44:25.947Z,20.43
2022-09-18T04:46:56.467Z,20.33
2022-09-18T04:49:26.940Z,20.33
2022-09-18T04:51:57.160Z,20.55
2022-09-18T04:54:28.127Z,20.55
2022-09-18T04:56:58.593Z,20.65
2022-09-18T04:59:29.833Z,20.46
2022-09-18T05:02:00.319Z,20.66
2022-09-18T05:04:30.677Z,20.69
2022-09-18T05:07:05.566Z,20.63
2022-09-18T05:09:36.359Z,20.50
2022-09-18T05:12:07.046Z,20.59
2022-09-18T05:14:37.448Z,20.58
2022-09-18T05:17:08.044Z,20.58
2022-09-18T05:19:42.247Z,20.68
2022-09-18T05:22:13.230Z,20.71
2022-09-18T05:24:43.535Z,20.84
2022-09-18T05:27:13.768Z,20.97
2022-09-18T05:29:44.274Z,21.12
2022-09-18T05:32:14.391Z,21.15
2022-09-18T05:34:44.683Z,21.31
2022-09-18T05:37:18.980Z,21.30
2022-09-18T05:39:49.358Z,21.22
2022-09-18T05:42:20.065Z,21.12
2022-09-18T05:45:01.898Z,21.12
2022-09-18T05:47:31.804Z,21.36
2022-09-18T05:50:02.228Z,22.00
2022-09-18T05:52:33.027Z,22.50
2022-09-18T05:55:03.318Z,22.54
2022-09-18T05:57:34.118Z,23.32
2022-09-18T06:00:04.947Z,23.32
2022-09-18T06:02:35.496Z,23.60
2022-09-18T06:05:06.504Z,24.18
2022-09-18T06:07:37.825Z,24.18
2022-09-18T06:10:08.683Z,23.65
2022-09-18T06:12:40.707Z,24.55
2022-09-18T06:15:11.972Z,24.37
2022-09-18T06:17:43.173Z,24.37
2022-09-18T06:20:13.487Z,24.34
2022-09-18T06:22:44.054Z,24.69
2022-09-18T06:25:14.527Z,24.44
2022-09-18T06:27:44.971Z,24.87
2022-09-18T06:30:19.306Z,25.06
2022-09-18T06:33:09.414Z,25.06
2022-09-18T06:35:41.123Z,25.20
2022-09-18T06:38:11.753Z,25.16
2022-09-18T06:40:50.867Z,25.25
2022-09-18T06:43:22.028Z,25.11
2022-09-18T06:45:55.525Z,25.73
2022-09-18T06:48:27.429Z,24.97
2022-09-18T06:50:59.666Z,25.42
2022-09-18T06:53:35.440Z,25.42
2022-09-18T06:56:07.337Z,25.80
2022-09-18T06:58:38.092Z,25.94
2022-09-18T07:01:11.085Z,25.94
2022-09-18T07:03:46.187Z,25.60
2022-09-18T07:06:16.802Z,26.14
2022-09-18T07:08:47.171Z,26.09
2022-09-18T07:11:19.717Z,26.28
2022-09-18T07:13:50.122Z,26.28
2022-09-18T07:16:30.795Z,26.06
2022-09-18T07:19:01.872Z,26.28
2022-09-18T07:21:32.236Z,26.28
2022-09-18T07:24:05.799Z,26.18
2022-09-18T07:26:37.341Z,26.61
2022-09-18T07:29:10.083Z,26.62
2022-09-18T07:31:40.601Z,26.73
2022-09-18T07:34:12.399Z,26.73
2022-09-18T07:36:42.951Z,26.54
2022-09-18T07:39:15.693Z,26.75
2022-09-18T07:41:57.131Z,26.75
2022-09-18T07:44:29.123Z,26.91
2022-09-18T07:47:17.153Z,26.96
2022-09-18T07:53:30.962Z,28.11
2022-09-18T08:36:22.364Z,28.73
2022-09-18T08:42:26.361Z,27.25
2022-09-18T08:45:02.407Z,27.25
2022-09-18T08:47:53.221Z,26.82
2022-09-18T08:50:29.753Z,26.71
2022-09-18T08:53:15.569Z,26.62
2022-09-18T08:55:46.423Z,26.63
2022-09-18T08:58:37.468Z,26.63
2022-09-18T09:01:13.958Z,27.49
2022-09-18T09:04:02.307Z,27.49
2022-09-18T09:07:03.674Z,27.89
2022-09-18T09:10:04.112Z,28.40
2022-09-18T09:12:59.510Z,28.22
2022-09-18T09:15:35.762Z,28.22
2022-09-18T09:18:23.602Z,28.74
2022-09-18T09:21:01.177Z,28.43
2022-09-18T09:23:43.348Z,28.61
2022-09-18T09:26:23.841Z,29.20
2022-09-18T09:29:03.168Z,28.55
2022-09-18T09:31:39.422Z,28.55
2022-09-18T09:34:21.057Z,28.08
2022-09-18T09:36:54.842Z,28.10
2022-09-18T09:39:30.540Z,28.27
2022-09-18T09:42:25.096Z,28.22
2022-09-18T09:45:04.334Z,27.58
2022-09-18T09:47:57.517Z,26.95
2022-09-18T09:50:39.311Z,26.40
2022-09-18T09:53:16.607Z,26.40
2022-09-18T09:56:06.244Z,26.44
2022-09-18T09:58:48.671Z,26.46
2022-09-18T10:01:31.845Z,26.81
2022-09-18T10:04:14.436Z,27.20
2022-09-18T10:06:53.405Z,27.20
2022-09-18T10:09:49.240Z,27.40
2022-09-18T10:12:28.647Z,27.59
2022-09-18T10:15:09.013Z,27.66
2022-09-18T10:17:44.313Z,27.66
2022-09-18T10:20:22.001Z,27.83
2022-09-18T10:22:57.560Z,28.36
2022-09-18T10:25:30.987Z,28.36
2022-09-18T10:28:03.020Z,28.21
2022-09-18T10:30:33.345Z,28.01
2022-09-18T10:33:03.623Z,28.18
2022-09-18T10:35:45.444Z,28.07
2022-09-18T10:38:27.566Z,28.07
2022-09-18T10:41:12.940Z,28.63
2022-09-18T10:43:55.652Z,28.52
2022-09-18T10:46:32.531Z,28.43
2022-09-18T10:49:08.709Z,28.75
2022-09-18T10:51:39.108Z,28.75
2022-09-18T10:54:24.171Z,29.38
2022-09-18T10:57:23.502Z,29.38
2022-09-18T10:59:54.013Z,27.79
2022-09-18T11:02:28.598Z,27.51
2022-09-18T11:04:59.365Z,27.51
2022-09-18T11:07:30.337Z,27.47
2022-09-18T11:10:03.527Z,27.80
2022-09-18T11:12:42.820Z,28.18
2022-09-18T11:15:13.620Z,27.22
2022-09-18T11:20:47.566Z,27.70
2022-09-18T11:23:31.178Z,27.70
2022-09-18T11:26:13.819Z,27.94
2022-09-18T11:28:45.520Z,28.63
2022-09-18T11:31:21.632Z,29.36
2022-09-18T11:33:57.837Z,29.36
2022-09-18T11:36:33.246Z,29.67
2022-09-18T11:39:13.906Z,29.88
2022-09-18T11:41:46.542Z,29.83
2022-09-18T11:44:31.175Z,30.25
2022-09-18T11:47:28.216Z,29.28
2022-09-18T11:50:10.086Z,28.90
2022-09-18T11:52:43.719Z,29.55
2022-09-18T11:55:26.196Z,29.55
2022-09-18T11:58:14.693Z,29.75
2022-09-18T12:00:48.029Z,29.62
2022-09-18T12:03:30.679Z,29.19
2022-09-18T12:06:23.647Z,28.21
2022-09-18T12:09:13.368Z,27.70
2022-09-18T12:12:10.930Z,27.70
2022-09-18T12:14:47.479Z,28.38
2022-09-18T12:17:24.423Z,28.83
2022-09-18T12:19:59.167Z,28.79
2022-09-18T12:22:39.799Z,29.01
2022-09-18T12:25:19.404Z,28.57
2022-09-18T12:28:06.069Z,28.73
2022-09-18T12:30:47.227Z,28.76
2022-09-18T12:33:40.229Z,28.91
2022-09-18T12:39:51.242Z,30.11
2022-09-18T12:42:27.393Z,30.11
2022-09-18T12:45:03.383Z,30.34
2022-09-18T12:47:55.307Z,30.16
2022-09-18T12:50:37.215Z,30.36
2022-09-18T12:53:32.217Z,30.36
2022-09-18T12:56:14.533Z,30.00
2022-09-18T12:58:50.774Z,30.31
2022-09-18T13:01:24.282Z,30.88
2022-09-18T13:03:58.097Z,30.70
2022-09-18T13:06:37.791Z,29.79
2022-09-18T13:09:17.742Z,29.50
2022-09-18T13:11:53.095Z,28.65
2022-09-18T13:14:43.971Z,28.73
2022-09-18T13:17:24.207Z,29.09
2022-09-18T13:20:22.113Z,29.48
2022-09-18T13:22:54.075Z,29.48
2022-09-18T13:25:39.616Z,27.76
2022-09-18T13:28:28.544Z,27.76
2022-09-18T13:31:28.175Z,29.02
2022-09-18T13:34:07.168Z,29.02
2022-09-18T13:36:46.502Z,28.62
2022-09-18T13:39:24.780Z,27.66
2022-09-18T13:42:09.727Z,27.66
2022-09-18T13:44:51.254Z,27.70
2022-09-18T13:47:32.875Z,28.43
2022-09-18T13:50:03.882Z,29.33
2022-09-18T13:52:37.965Z,29.33
2022-09-18T13:55:18.509Z,28.51
2022-09-18T13:57:49.375Z,29.44
2022-09-18T14:00:24.171Z,28.65
2022-09-18T14:03:13.065Z,27.73
2022-09-18T14:05:50.303Z,26.04
2022-09-18T14:08:24.367Z,26.04
2022-09-18T14:11:15.974Z,25.94
2022-09-18T14:13:47.922Z,25.81
2022-09-18T14:16:24.587Z,25.10
2022-09-18T14:19:00.708Z,25.10
2022-09-18T14:21:43.019Z,25.10
2022-09-18T14:24:42.658Z,25.08
2022-09-18T14:27:36.850Z,24.90
2022-09-18T14:30:40.182Z,24.56
2022-09-18T14:33:19.277Z,24.56
2022-09-18T14:36:01.205Z,23.97
2022-09-18T14:38:37.326Z,23.97
2022-09-18T14:41:13.374Z,24.12
2022-09-18T14:43:49.408Z,24.12
2022-09-18T14:46:25.145Z,23.97
2022-09-18T14:48:57.651Z,23.53
2022-09-18T14:51:44.868Z,23.73
2022-09-18T14:54:05.574Z,23.73
2022-09-18T14:56:37.976Z,23.57
2022-09-18T14:59:13.984Z,23.41
2022-09-18T15:01:52.981Z,23.41
2022-09-18T15:04:33.938Z,23.21
2022-09-18T15:07:05.439Z,23.03
2022-09-18T15:09:36.397Z,23.03
2022-09-18T15:12:15.439Z,23.05
2022-09-18T15:14:48.703Z,23.10
2022-09-18T15:17:38.508Z,23.10
2022-09-18T15:20:11.897Z,22.89
2022-09-18T15:22:55.931Z,22.91
2022-09-18T15:25:23.862Z,22.63
2022-09-18T15:27:58.756Z,22.53
2022-09-18T15:30:29.707Z,22.53
2022-09-18T15:33:03.272Z,22.37
2022-09-18T15:35:36.400Z,22.35
2022-09-18T15:38:18.489Z,22.35
2022-09-18T15:40:49.806Z,22.17
2022-09-18T15:43:35.138Z,22.17
2022-09-18T15:46:11.468Z,22.09
2022-09-18T15:48:47.532Z,22.07
2022-09-18T15:51:26.153Z,22.07
2022-09-18T15:54:08.416Z,21.81
2022-09-18T15:56:53.067Z,21.71
2022-09-18T15:59:33.740Z,21.71
2022-09-18T16:05:16.394Z,21.33
2022-09-18T16:08:01.382Z,20.66
2022-09-18T16:10:38.165Z,20.06
2022-09-18T16:13:35.338Z,19.84
2022-09-18T16:16:14.705Z,19.84
2022-09-18T16:21:47.581Z,19.10
2022-09-18T16:24:23.732Z,19.31
2022-09-18T16:26:59.026Z,18.83
2022-09-18T16:29:31.464Z,18.87
2022-09-18T16:32:02.387Z,18.87
2022-09-18T16:34:34.762Z,18.55
2022-09-18T16:37:06.258Z,18.29
2022-09-18T16:39:37.318Z,18.21
2022-09-18T16:42:32.798Z,18.21
2022-09-18T16:45:07.833Z,17.76
2022-09-18T16:47:42.886Z,17.76
2022-09-18T16:50:16.635Z,17.58
2022-09-18T16:52:53.550Z,17.35
2022-09-18T16:55:45.178Z,17.24
2022-09-18T16:58:21.453Z,17.24
2022-09-18T17:00:54.905Z,17.28
2022-09-18T17:03:29.485Z,17.14
2022-09-18T17:06:01.484Z,17.06
2022-09-18T17:08:34.752Z,17.06
2022-09-18T17:11:07.225Z,16.92
2022-09-18T17:13:46.398Z,16.79
2022-09-18T17:16:41.242Z,16.81
2022-09-18T17:18:53.895Z,16.65
2022-09-18T17:21:27.755Z,16.65
2022-09-18T17:24:25.006Z,16.59
2022-09-18T17:26:56.212Z,16.59
2022-09-18T17:29:27.502Z,16.40
2022-09-18T17:31:58.106Z,16.42
2022-09-18T17:34:30.386Z,16.20
2022-09-18T17:37:06.570Z,16.15
2022-09-18T17:40:14.262Z,16.15
2022-09-18T17:42:43.042Z,15.68
2022-09-18T17:45:16.656Z,15.68
2022-09-18T17:47:58.385Z,15.67
2022-09-18T17:50:36.006Z,15.43
2022-09-18T17:56:28.637Z,15.38
2022-09-18T17:59:01.849Z,15.33
2022-09-18T18:01:44.418Z,14.95
2022-09-18T18:04:17.721Z,14.94
2022-09-18T18:06:51.800Z,14.94
2022-09-18T18:09:24.428Z,14.62
2022-09-18T18:11:58.612Z,14.71
2022-09-18T18:14:39.222Z,14.38
2022-09-18T18:17:11.694Z,14.38
2022-09-18T18:19:42.055Z,14.32
2022-09-18T18:22:15.201Z,14.12
2022-09-18T18:24:49.379Z,14.04
2022-09-18T18:27:24.957Z,14.04
2022-09-18T18:29:56.860Z,14.01
2022-09-18T18:32:27.708Z,14.06
2022-09-18T18:35:01.727Z,14.06
2022-09-18T18:37:34.705Z,14.05
2022-09-18T18:40:05.957Z,14.05
2022-09-18T18:42:37.271Z,14.06
2022-09-18T18:45:45.634Z,13.91
2022-09-18T18:48:16.343Z,13.66
2022-09-18T18:50:46.808Z,13.79
2022-09-18T18:53:22.091Z,13.79
2022-09-18T18:55:57.918Z,13.82
2022-09-18T18:58:34.433Z,13.74
2022-09-18T19:04:05.688Z,13.62
2022-09-18T19:06:39.149Z,13.62
2022-09-18T19:09:23.434Z,13.62
2022-09-18T19:12:18.316Z,13.69
2022-09-18T19:14:52.390Z,13.42
2022-09-18T19:17:25.018Z,13.55
2022-09-18T19:20:04.581Z,13.58
2022-09-18T19:26:20.564Z,13.43
2022-09-18T19:29:23.976Z,13.39
2022-09-18T19:32:02.801Z,13.18
2022-09-18T19:34:33.366Z,13.18
2022-09-18T19:37:11.691Z,13.16
2022-09-18T19:39:40.180Z,13.09
2022-09-18T19:42:31.252Z,13.35
2022-09-18T19:45:05.090Z,13.35
2022-09-18T19:47:46.722Z,13.15
2022-09-18T19:50:30.573Z,13.05
2022-09-18T19:53:04.782Z,13.27
2022-09-18T19:55:35.806Z,13.27
2022-09-18T20:01:26.098Z,12.91
2022-09-18T20:03:57.531Z,12.91
2022-09-18T20:06:33.767Z,12.90
2022-09-18T20:09:05.069Z,12.83
2022-09-18T20:11:47.612Z,12.83
2022-09-18T20:14:20.034Z,12.87
2022-09-18T20:16:50.730Z,12.87
2022-09-18T20:22:21.442Z,12.85
2022-09-18T20:24:55.296Z,12.87
2022-09-18T20:27:27.530Z,12.87
2022-09-18T20:30:02.015Z,12.89
2022-09-18T20:32:35.943Z,12.88
2022-09-18T20:35:07.596Z,12.80
2022-09-18T20:37:38.850Z,12.68
2022-09-18T20:40:11.481Z,12.80
2022-09-18T20:42:42.782Z,12.80
2022-09-18T20:45:16.318Z,12.75
2022-09-18T20:47:50.124Z,12.69
2022-09-18T20:50:21.213Z,12.77
2022-09-18T20:52:53.385Z,12.77
2022-09-18T20:55:24.015Z,12.59
2022-09-18T20:57:58.211Z,12.73
2022-09-18T21:00:27.824Z,12.71
2022-09-18T21:03:01.034Z,12.56
2022-09-18T21:05:31.629Z,12.56
2022-09-18T21:08:02.878Z,12.79
2022-09-18T21:10:33.597Z,12.79
2022-09-18T21:13:04.521Z,12.76
2022-09-18T21:15:37.022Z,12.76
2022-09-18T21:18:07.386Z,12.65
2022-09-18T21:20:38.361Z,12.67
2022-09-18T21:23:12.520Z,12.67
2022-09-18T21:25:42.960Z,12.60
2022-09-18T21:28:13.722Z,12.60
2022-09-18T21:30:44.086Z,12.68
2022-09-18T21:33:14.856Z,12.50
2022-09-18T21:35:52.851Z,12.50
2022-09-18T21:38:23.104Z,12.40
2022-09-18T21:40:53.396Z,12.40
2022-09-18T21:43:23.616Z,12.24
2022-09-18T21:45:54.230Z,12.18
2022-09-18T21:48:24.726Z,12.18
2022-09-18T21:50:55.370Z,12.54
2022-09-18T21:53:25.633Z,12.41
2022-09-18T21:56:04.598Z,12.41
2022-09-18T21:58:39.973Z,12.40
2022-09-18T22:01:19.502Z,12.32
2022-09-18T22:03:54.628Z,12.14
2022-09-18T22:06:27.629Z,12.14
2022-09-18T22:08:59.612Z,12.12
2022-09-18T22:11:35.899Z,12.11
2022-09-18T22:14:09.376Z,12.11
2022-09-18T22:16:40.749Z,12.09
2022-09-18T22:19:11.976Z,12.01
2022-09-18T22:21:44.887Z,12.01
2022-09-18T22:24:17.837Z,11.84
2022-09-18T22:26:59.348Z,11.78
2022-09-18T22:29:32.675Z,11.74
2022-09-18T22:32:03.884Z,11.87
2022-09-18T22:34:35.050Z,11.78
2022-09-18T22:37:05.344Z,11.79
2022-09-18T22:39:35.610Z,11.73
2022-09-18T22:42:05.863Z,11.85
2022-09-18T22:44:36.235Z,11.70
2022-09-18T22:47:06.837Z,11.67
2022-09-18T22:49:37.748Z,11.56
2022-09-18T22:52:08.039Z,11.60
2022-09-18T22:54:38.640Z,11.60
2022-09-18T22:57:08.927Z,11.50
2022-09-18T22:59:39.047Z,11.68
2022-09-18T23:02:09.311Z,11.70
2022-09-18T23:04:40.289Z,11.71
2022-09-18T23:07:10.860Z,11.77
2022-09-18T23:09:41.879Z,11.86
2022-09-18T23:12:12.269Z,11.68
2022-09-18T23:14:43.048Z,11.61
2022-09-18T23:17:14.220Z,11.59
2022-09-18T23:19:44.462Z,11.59
2022-09-18T23:22:14.765Z,11.57
2022-09-18T23:24:45.309Z,11.39
2022-09-18T23:27:15.694Z,11.35
2022-09-18T23:29:46.064Z,11.14
2022-09-18T23:32:16.430Z,11.14
2022-09-18T23:34:46.724Z,11.26
2022-09-18T23:37:17.062Z,11.52
2022-09-18T23:39:47.376Z,11.52
2022-09-18T23:42:17.583Z,11.47
2022-09-18T23:44:47.815Z,11.29
2022-09-18T23:47:18.112Z,11.29
2022-09-18T23:49:48.420Z,11.37
2022-09-18T23:52:18.729Z,11.39
2022-09-18T23:54:48.962Z,11.58
2022-09-18T23:57:19.478Z,11.54
2022-09-18T23:59:52.526Z,11.55
